Time;durP1;ratioP1;P1;durP2;ratioP2;P2;SDS_P1;SDS_P2;PMS_P1;PMS_P2;Temp;Humidity;BMP_temperature;BMP_pressure;BME280_temperature;BME280_humidity;BME280_pressure;Samples;Min_cycle;Max_cycle;Signal;HPM_P1;HPM_P2
2021/08/01 00:01:47;;;;;;;8.10;7.40;;;;;;;26.80;100.00;123554.15;828558;71;29782;-77
2021/08/01 00:16:44;;;;;;;8.37;7.67;;;;;;;;;;828327;71;29735;-76
2021/08/01 00:31:44;;;;;;;8.23;7.43;;;;;;;26.09;47.50;94208.58;828276;71;29751;-78
2021/08/01 00:46:46;;;;;;;8.43;7.80;;;;;;;25.72;48.81;94211.85;828582;71;30268;-77
2021/08/01 01:02:01;;;;;;;9.77;8.97;;;;;;;25.45;52.05;94229.82;827370;71;33006;-77
2021/08/01 01:17:04;;;;;;;13.63;11.60;;;;;;;24.53;57.79;94239.52;828368;71;29772;-76
2021/08/01 01:32:12;;;;;;;12.07;10.97;;;;;;;25.48;55.34;94233.64;833825;71;30152;-77
2021/08/01 01:46:42;;;;;;;12.63;11.20;;;;;;;25.59;54.75;94229.00;828489;71;29810;-77
2021/08/01 02:01:43;;;;;;;14.53;13.33;;;;;;;24.61;58.35;94250.45;828402;71;29739;-78
2021/08/01 02:16:54;;;;;;;12.87;11.77;;;;;;;24.50;58.35;94237.63;834048;71;33183;-76
2021/08/01 02:31:47;;;;;;;13.00;11.50;;;;;;;25.46;55.73;94242.09;828492;71;28585;-79
2021/08/01 02:46:58;;;;;;;12.50;11.33;;;;;;;25.73;54.79;94251.00;827557;71;31707;-77
2021/08/01 03:02:11;;;;;;;13.73;12.43;;;;;;;25.73;54.68;94255.03;828358;71;29031;-77
2021/08/01 03:17:06;;;;;;;11.47;10.37;;;;;;;25.77;54.33;94249.84;835928;71;31777;-76
2021/08/01 03:32:04;;;;;;;12.23;11.20;;;;;;;25.89;54.01;94284.94;827695;71;32287;-78
2021/08/01 03:47:03;;;;;;;12.80;11.70;;;;;;;25.24;54.94;94294.34;828465;71;31752;-75
2021/08/01 04:01:57;;;;;;;12.17;11.07;;;;;;;26.21;54.17;94278.64;829883;71;28653;-76
2021/08/01 04:16:55;;;;;;;13.07;11.87;;;;;;;;;;834105;71;29282;-77
2021/08/01 04:31:55;;;;;;;15.23;13.63;;;;;;;27.68;51.08;94284.18;828218;71;28758;-76
2021/08/01 04:46:58;;;;;;;16.43;14.37;;;;;;;28.20;49.49;94295.31;827590;71;31759;-79
2021/08/01 05:01:52;;;;;;;14.67;13.13;;;;;;;26.36;53.70;94316.42;830225;71;29360;-78
2021/08/01 05:16:50;;;;;;;15.13;12.73;;;;;;;23.59;52.54;93848.19;828324;71;28678;-76
2021/08/01 05:31:51;;;;;;;15.20;13.70;;;;;;;26.82;52.08;94121.48;834121;71;29269;-77
2021/08/01 05:46:55;;;;;;;15.30;13.80;;;;;;;27.19;53.59;94327.98;827361;71;31749;-76
2021/08/01 06:01:48;;;;;;;14.57;13.23;;;;;;;27.89;51.93;94318.24;834056;71;29366;-73
2021/08/01 06:16:53;;;;;;;13.63;12.53;;;;;;;27.98;49.76;94327.19;821735;71;32374;-76
2021/08/01 06:31:44;;;;;;;15.40;13.90;;;;;;;28.16;48.03;94308.08;822046;71;28756;-80
2021/08/01 06:46:49;;;;;;;20.13;15.87;;;;;;;28.09;49.04;94298.75;822459;71;31874;-80
2021/08/01 07:01:46;;;;;;;17.63;16.10;;;;;;;28.13;48.42;94290.78;819522;71;31648;-78
2021/08/01 07:16:47;;;;;;;19.10;17.10;;;;;;;28.40;50.15;94295.42;827556;71;31914;-76
2021/08/01 07:31:40;;;;;;;18.83;17.00;;;;;;;29.32;47.90;94311.97;828345;71;28457;-77
2021/08/01 07:46:44;;;;;;;18.07;16.33;;;;;;;29.72;46.23;94314.77;833977;71;31581;-75
2021/08/01 08:01:45;;;;;;;18.87;16.97;;;;;;;29.69;45.60;94308.22;827440;71;32362;-76
2021/08/01 08:16:46;;;;;;;17.67;16.07;;;;;;;29.79;45.40;94292.23;827594;71;32253;-77
2021/08/01 08:31:46;;;;;;;17.93;16.23;;;;;;;30.17;44.63;94280.41;827864;71;30464;-75
2021/08/01 08:47:04;;;;;;;16.77;15.13;;;;;;;31.49;41.35;94264.37;822252;71;32006;-81
2021/08/01 09:02:47;;;;;;;15.73;14.33;;;;;;;31.70;39.75;94222.31;827389;71;32012;-81
2021/08/01 09:17:57;;;;;;;;;;;;;;;;;;;;;
2021/08/01 09:32:25;;;;;;;17.53;15.83;;;;;;;33.34;38.39;94239.39;807256;71;30515;-81
2021/08/01 09:47:10;;;;;;;17.40;15.67;;;;;;;33.35;37.59;94216.41;816982;71;30360;-77
2021/08/01 10:17:12;;;;;;;16.30;14.80;;;;;;;33.33;37.23;94187.53;823634;71;30695;-84
2021/08/01 10:32:46;;;;;;;16.80;15.30;;;;;;;33.55;36.84;94169.09;794380;72;30925;-77
2021/08/01 10:47:02;;;;;;;16.43;14.93;;;;;;;34.08;35.21;94150.73;815152;71;30175;-77
2021/08/01 11:02:14;;;;;;;16.13;14.60;;;;;;;34.82;34.97;94121.56;819730;71;29381;-77
2021/08/01 11:17:09;;;;;;;17.33;15.63;;;;;;;34.64;35.24;94101.23;816247;71;31834;-77
2021/08/01 11:32:09;;;;;;;15.07;13.67;;;;;;;34.98;32.97;94074.89;815530;71;31845;-77
2021/08/01 11:47:06;;;;;;;14.43;12.90;;;;;;;35.42;30.46;94059.48;828314;71;29118;-78
2021/08/01 12:01:52;;;;;;;14.13;12.83;;;;;;;35.59;29.69;94031.84;828162;71;29098;-77
2021/08/01 12:17:08;;;;;;;13.10;11.83;;;;;;;35.64;28.27;94040.75;827488;71;32230;-76
2021/08/01 12:32:01;;;;;;;13.70;12.40;;;;;;;35.76;29.42;94011.14;827588;71;32277;-76
2021/08/01 12:47:17;;;;;;;13.10;12.10;;;;;;;36.15;28.09;94010.47;827641;71;31839;-75
2021/08/01 13:01:59;;;;;;;12.93;11.53;;;;;;;36.24;28.52;93994.77;828357;71;29502;-77
2021/08/01 13:16:53;;;;;;;10.40;9.47;;;;;;;36.52;23.97;93977.38;828710;71;28457;-77
2021/08/01 13:31:48;;;;;;;11.53;10.13;;;;;;;36.70;23.69;93970.39;828554;71;29383;-78
2021/08/01 13:46:49;;;;;;;10.70;9.70;;;;;;;36.99;23.17;93965.54;834764;70;28421;-76
2021/08/01 14:01:54;;;;;;;9.63;8.90;;;;;;;37.07;23.08;93956.34;824934;71;31723;-77
2021/08/01 14:16:51;;;;;;;11.30;9.60;;;;;;;36.86;22.00;93945.33;828395;71;29197;-76
2021/08/01 14:31:46;;;;;;;8.97;8.07;;;;;;;36.87;22.18;93946.07;834587;71;31754;-76
2021/08/01 14:46:54;;;;;;;9.50;8.80;;;;;;;36.56;22.36;93928.14;834241;71;28452;-77
2021/08/01 15:02:15;;;;;;;11.07;9.97;;;;;;;36.13;23.94;93924.09;829805;71;28475;-78
2021/08/01 15:17:16;;;;;;;11.83;10.83;;;;;;;36.17;25.24;93927.42;834081;71;29188;-77
2021/08/01 15:32:16;;;;;;;11.93;10.93;;;;;;;35.79;25.44;93937.08;824769;71;31002;-76
2021/08/01 15:47:04;;;;;;;12.40;11.20;;;;;;;35.38;26.21;93933.97;821288;70;31826;-76
2021/08/01 16:02:20;;;;;;;13.30;12.00;;;;;;;35.35;26.49;93935.66;817429;71;32197;-81
2021/08/01 16:17:22;;;;;;;13.50;12.10;;;;;;;35.17;26.58;93935.75;818154;71;31869;-75
2021/08/01 16:32:10;;;;;;;12.07;11.00;;;;;;;34.89;26.67;93935.20;820217;71;31816;-78
2021/08/01 16:47:09;;;;;;;12.85;11.65;;;;;;;34.61;27.51;93955.55;810231;71;28318;-76
2021/08/01 17:02:06;;;;;;;7.80;7.10;;;;;;;34.20;27.27;93956.35;823874;71;33298;-81
2021/08/01 17:17:02;;;;;;;9.67;8.70;;;;;;;33.73;28.22;93960.36;819745;71;32800;-76
2021/08/01 17:32:05;;;;;;;12.30;10.20;;;;;;;33.20;29.84;93957.78;818115;71;32834;-76
2021/08/01 17:47:08;;;;;;;9.90;8.90;;;;;;;32.53;31.62;93967.95;818306;71;32911;-77
2021/08/01 18:02:00;;;;;;;10.90;9.80;;;;;;;31.93;32.24;93981.02;808319;71;29773;-75
2021/08/01 18:17:07;;;;;;;9.97;9.03;;;;;;;31.40;34.45;93981.38;816243;71;32898;-79
2021/08/01 18:31:51;;;;;;;9.13;8.10;;;;;;;31.02;33.88;93992.96;815695;71;31158;-78
2021/08/01 18:32:56;;;;;;;11.37;9.50;;;;;;;30.95;34.32;93994.69;802264;73;27816;-77
2021/08/01 18:46:51;;;;;;;12.40;9.60;;;;;;;30.70;34.80;93998.09;814231;71;29393;-74
2021/08/01 19:02:19;;;;;;;13.40;9.30;;;;;;;30.33;35.48;94002.97;817140;71;32410;-78
2021/08/01 19:17:05;;;;;;;11.77;9.50;;;;;;;29.96;38.45;94002.31;820205;71;30956;-76
2021/08/01 19:31:49;;;;;;;8.63;7.87;;;;;;;29.83;41.25;94008.86;811278;71;32890;-75
2021/08/01 19:47:04;;;;;;;9.50;8.10;;;;;;;29.56;41.98;93997.66;818992;71;32999;-78
2021/08/01 20:01:44;;;;;;;9.50;8.50;;;;;;;29.40;42.44;94032.23;811219;71;30976;-76
2021/08/01 20:16:51;;;;;;;9.80;8.77;;;;;;;29.17;42.90;94041.20;812052;71;32841;-76
2021/08/01 20:31:47;;;;;;;13.27;10.43;;;;;;;28.85;42.43;94033.14;815978;71;30344;-77
2021/08/01 20:46:40;;;;;;;12.03;10.70;;;;;;;28.68;40.47;94043.13;814177;71;33492;-76
2021/08/01 21:02:14;;;;;;;15.20;11.87;;;;;;;28.56;43.20;94053.95;817627;71;32903;-74
2021/08/01 21:17:03;;;;;;;12.20;10.90;;;;;;;28.46;43.33;94064.92;814144;71;32164;-78
2021/08/01 21:32:04;;;;;;;16.53;10.20;;;;;;;28.33;42.67;94077.67;819087;71;33444;-75
2021/08/01 21:46:56;;;;;;;17.37;11.10;;;;;;;28.30;42.96;94070.39;816094;71;29379;-78
2021/08/01 22:01:55;;;;;;;11.83;10.67;;;;;;;28.16;42.97;94083.56;815720;71;29773;-77
2021/08/01 22:16:58;;;;;;;12.33;10.70;;;;;;;28.04;44.01;94079.31;819698;71;29653;-77
2021/08/01 22:32:03;;;;;;;16.53;14.90;;;;;;;27.65;44.79;94088.75;818763;71;29622;-76
2021/08/01 22:47:03;;;;;;;15.93;13.70;;;;;;;27.38;46.18;94090.27;816680;71;31048;-78
2021/08/01 22:48:08;;;;;;;15.30;13.70;;;;;;;27.32;46.46;94084.39;805621;73;27482;-78
2021/08/01 23:02:10;;;;;;;17.13;13.63;;;;;;;27.35;46.22;94096.48;809352;71;30424;-76
2021/08/01 23:17:00;;;;;;;15.63;14.13;;;;;;;27.21;47.52;94095.84;827738;71;33241;-77
2021/08/01 23:32:01;;;;;;;16.13;14.53;;;;;;;;;;829262;71;33174;-77
2021/08/01 23:47:00;;;;;;;16.03;13.27;;;;;;;;;;828354;71;32743;-76
